Piedmont Triad International Airport
KGSO : now visible

Airfield :











YOU CAN JOIN US ON...

 
LOGIN :

Register | Disclaimer

   EN    FR    IT 

 









Legend :    VFR   Marginal VFR   IFR   Intensive IFR   Very Intensive IFR
Visi :
Ceiling :
>= 8 km
>= 3000ft
5 to 8 km
1000 to 3000 ft
1500m to 5 km
500 to 1000 ft
800 to 1500m
200 to 500 ft
< 800m
< 200 ft
Symbols :   Thunderstorms  Fog  Heavy snow  Heavy precipitations  Wind > 20 kt






- Airport Elevation : 925 ft
- IATA code : GSO


KGSO - Piedmont Triad International

CURRENT METAR :
  • 191654Z 11006KT 10SM FEW040 FEW090 BKN140 BKN250 25/17 A3011 RMK AO2 SLP186 T02500167

EXPIRED METARs :
  • 191554Z 13007KT 10SM FEW045 BKN140 BKN250 26/17 A3012 RMK AO2 SLP187 T02560167
  • 191454Z 09003KT 10SM FEW032 SCT110 BKN180 BKN250 25/17 A3011 RMK AO2 SLP186 T02500172 53007

TAF KGSO
Valid from the 19 at 12:00 until the 20 at 12:00 UTC


191129Z 1912/2012 06003KT P6SM FEW050 BKN150
FM191600 14007KT P6SM BKN050 OVC080
FM200000 15005KT P6SM SCT025 OVC050
TEMPO 2000/2004 5SM -SHRA BKN025
FM200700 05003KT 4SM BR BKN005
KZTL FIR / North America



MET'MAP, your aeronautical weather chart ! - Copyright ORBIFLY December 2007 - Disclaimer

ORBIFLY MET'MAP TEAM :

Programming & Development : Alexandra Zaïnal
Original concept : Baudouin d'Aumeries
Technical & hardware support : Manuel Goepfert
Assistance : Marc-Olivier Méhu




SOURCES & CREDITS :

   NOAA       Earth
Advisory